createdAt,value
2022-12-11T00:02:21.610Z,100684.22
2022-12-11T00:04:48.254Z,100689.50
2022-12-11T00:07:14.890Z,100692.84
2022-12-11T00:09:41.504Z,100686.06
2022-12-11T00:12:08.133Z,100684.91
2022-12-11T00:14:35.395Z,100692.53
2022-12-11T00:17:02.106Z,100684.91
2022-12-11T00:19:28.797Z,100687.72
2022-12-11T00:21:55.403Z,100676.47
2022-12-11T00:24:22.085Z,100683.28
2022-12-11T00:26:48.785Z,100677.66
2022-12-11T00:29:15.379Z,100678.47
2022-12-11T00:31:42.415Z,100675.97
2022-12-11T00:34:09.329Z,100663.06
2022-12-11T00:36:35.954Z,100671.81
2022-12-11T00:39:03.723Z,100672.16
2022-12-11T00:41:30.666Z,100664.88
2022-12-11T00:44:05.807Z,100663.19
2022-12-11T00:46:32.514Z,100667.50
2022-12-11T00:48:59.134Z,100664.16
2022-12-11T00:51:26.288Z,100658.88
2022-12-11T00:53:59.267Z,100662.84
2022-12-11T00:56:26.010Z,100661.47
2022-12-11T00:58:52.626Z,100652.84
2022-12-11T01:01:21.207Z,100655.97
2022-12-11T01:03:48.404Z,100655.47
2022-12-11T01:06:19.523Z,100652.16
2022-12-11T01:08:47.143Z,100656.44
2022-12-11T01:11:15.945Z,100661.53
2022-12-11T01:13:43.012Z,100645.31
2022-12-11T01:16:10.823Z,100641.19
2022-12-11T01:18:37.760Z,100649.09
2022-12-11T01:21:08.996Z,100642.13
2022-12-11T01:23:35.629Z,100640.78
2022-12-11T01:26:11.784Z,100631.84
2022-12-11T01:28:38.831Z,100632.47
2022-12-11T01:31:12.634Z,100643.50
2022-12-11T01:33:39.774Z,100636.56
2022-12-11T01:36:09.416Z,100636.34
2022-12-11T01:38:36.462Z,100640.09
2022-12-11T01:41:03.282Z,100646.03
2022-12-11T01:43:30.122Z,100636.59
2022-12-11T01:45:56.800Z,100640.84
2022-12-11T01:48:28.873Z,100632.25
2022-12-11T01:50:57.651Z,100635.16
2022-12-11T01:53:27.661Z,100633.56
2022-12-11T01:55:55.394Z,100637.00
2022-12-11T01:58:23.705Z,100638.78
2022-12-11T02:00:51.757Z,100656.25
2022-12-11T02:03:18.590Z,100656.34
2022-12-11T02:05:45.319Z,100655.53
2022-12-11T02:08:12.463Z,100656.66
2022-12-11T02:10:58.023Z,100661.53
2022-12-11T02:13:33.206Z,100659.38
2022-12-11T02:16:07.854Z,100643.19
2022-12-11T02:18:48.229Z,100650.84
2022-12-11T02:21:24.003Z,100648.16
2022-12-11T02:24:00.455Z,100651.06
2022-12-11T02:26:46.551Z,100658.44
2022-12-11T02:29:17.440Z,100643.88
2022-12-11T02:32:07.469Z,100649.28
2022-12-11T02:34:46.951Z,100639.31
2022-12-11T02:37:16.797Z,100637.13
2022-12-11T02:39:49.728Z,100640.34
2022-12-11T02:42:16.745Z,100633.09
2022-12-11T02:44:44.280Z,100638.97
2022-12-11T02:47:12.675Z,100639.06
2022-12-11T02:49:49.910Z,100639.69
2022-12-11T02:52:19.488Z,100633.56
2022-12-11T02:54:47.200Z,100636.75
2022-12-11T02:57:19.339Z,100631.16
2022-12-11T02:59:46.642Z,100617.78
2022-12-11T03:02:15.303Z,100620.88
2022-12-11T03:04:42.427Z,100621.78
2022-12-11T03:07:18.194Z,100624.97
2022-12-11T03:09:48.597Z,100623.34
2022-12-11T03:12:17.635Z,100619.72
2022-12-11T03:14:44.504Z,100618.34
2022-12-11T03:17:22.320Z,100621.22
2022-12-11T03:20:21.655Z,100613.25
2022-12-11T03:22:52.378Z,100619.22
2022-12-11T03:25:22.352Z,100617.88
2022-12-11T03:28:01.535Z,100608.94
2022-12-11T03:30:29.049Z,100601.16
2022-12-11T03:33:03.017Z,100604.25
2022-12-11T03:35:39.209Z,100600.13
2022-12-11T03:38:08.369Z,100594.31
2022-12-11T03:40:36.352Z,100595.44
2022-12-11T03:43:03.711Z,100592.94
2022-12-11T03:45:30.615Z,100597.47
2022-12-11T03:47:58.540Z,100586.91
2022-12-11T03:50:26.694Z,100583.56
2022-12-11T03:52:54.102Z,100576.91
2022-12-11T03:55:22.328Z,100576.38
2022-12-11T03:57:49.201Z,100580.09
2022-12-11T04:00:18.133Z,100573.44
2022-12-11T04:02:45.362Z,100579.03
2022-12-11T04:05:12.402Z,100582.47
2022-12-11T04:07:39.305Z,100587.81
2022-12-11T04:10:07.160Z,100588.38
2022-12-11T04:12:33.760Z,100592.41
2022-12-11T04:15:03.166Z,100594.69
2022-12-11T04:17:48.880Z,100592.50
2022-12-11T04:20:34.077Z,100593.91
2022-12-11T04:23:19.080Z,100589.22
2022-12-11T04:25:45.721Z,100589.56
2022-12-11T04:28:12.413Z,100586.44
2022-12-11T04:30:39.151Z,100587.88
2022-12-11T04:33:06.040Z,100582.91
2022-12-11T04:35:32.814Z,100587.66
2022-12-11T04:37:59.498Z,100582.34
2022-12-11T04:40:26.164Z,100575.41
2022-12-11T04:42:52.809Z,100580.75
2022-12-11T04:45:19.545Z,100582.22
2022-12-11T04:47:46.261Z,100578.06
2022-12-11T04:50:14.493Z,100571.94
2022-12-11T04:52:41.377Z,100572.81
2022-12-11T04:55:09.357Z,100565.56
2022-12-11T04:57:36.363Z,100559.47
2022-12-11T05:00:04.972Z,100562.84
2022-12-11T05:02:34.177Z,100565.13
2022-12-11T05:05:00.797Z,100562.94
2022-12-11T05:07:27.405Z,100564.06
2022-12-11T05:09:54.082Z,100563.53
2022-12-11T05:12:20.714Z,100561.34
2022-12-11T05:14:47.427Z,100552.41
2022-12-11T05:17:14.013Z,100552.41
2022-12-11T05:19:50.721Z,100557.78
2022-12-11T05:22:18.120Z,100551.66
2022-12-11T05:24:45.576Z,100562.53
2022-12-11T05:27:12.245Z,100553.31
2022-12-11T05:29:44.528Z,100546.38
2022-12-11T05:32:11.227Z,100554.81
2022-12-11T05:34:37.909Z,100548.16
2022-12-11T05:37:04.553Z,100544.00
2022-12-11T05:39:31.200Z,100550.19
2022-12-11T05:41:57.956Z,100553.25
2022-12-11T05:44:25.169Z,100551.31
2022-12-11T05:46:51.937Z,100552.97
2022-12-11T05:49:20.188Z,100556.59
2022-12-11T05:51:46.938Z,100556.91
2022-12-11T05:54:13.630Z,100548.28
2022-12-11T05:56:40.394Z,100553.63
2022-12-11T05:59:07.413Z,100560.09
2022-12-11T06:01:35.660Z,100552.56
2022-12-11T06:04:03.178Z,100557.06
2022-12-11T06:06:29.781Z,100553.72
2022-12-11T06:08:57.416Z,100549.03
2022-12-11T06:11:24.789Z,100548.81
2022-12-11T06:13:52.235Z,100542.16
2022-12-11T06:16:19.117Z,100541.03
2022-12-11T06:18:46.067Z,100542.66
2022-12-11T06:21:17.285Z,100546.84
2022-12-11T06:23:44.557Z,100548.25
2022-12-11T06:26:11.965Z,100536.84
2022-12-11T06:28:38.711Z,100534.44
2022-12-11T06:31:05.460Z,100536.69
2022-12-11T06:33:32.691Z,100529.13
2022-12-11T06:36:06.805Z,100533.88
2022-12-11T06:38:33.432Z,100537.81
2022-12-11T06:41:01.254Z,100535.84
2022-12-11T06:43:27.986Z,100536.44
2022-12-11T06:45:59.173Z,100545.66
2022-12-11T06:48:28.814Z,100540.63
2022-12-11T06:50:55.459Z,100544.28
2022-12-11T06:53:22.194Z,100544.28
2022-12-11T06:55:48.851Z,100544.28
2022-12-11T06:58:15.538Z,100542.03
2022-12-11T07:00:42.195Z,100542.53
2022-12-11T07:03:10.129Z,100551.47
2022-12-11T07:05:36.707Z,100551.19
2022-12-11T07:08:03.377Z,100551.69
2022-12-11T07:10:30.178Z,100556.69
2022-12-11T07:12:56.889Z,100549.69
2022-12-11T07:15:23.537Z,100555.22
2022-12-11T07:17:50.128Z,100542.63
2022-12-11T07:20:17.527Z,100545.34
2022-12-11T07:22:46.582Z,100543.63
2022-12-11T07:25:13.734Z,100537.47
2022-12-11T07:27:41.731Z,100533.78
2022-12-11T07:30:08.966Z,100536.50
2022-12-11T07:32:35.625Z,100535.59
2022-12-11T07:35:02.394Z,100533.91
2022-12-11T07:37:28.982Z,100531.84
2022-12-11T07:39:55.587Z,100539.34
2022-12-11T07:42:22.277Z,100541.22
2022-12-11T07:44:49.000Z,100540.03
2022-12-11T07:47:15.725Z,100536.63
2022-12-11T07:49:51.574Z,100546.63
2022-12-11T07:52:18.150Z,100541.78
2022-12-11T07:54:44.771Z,100538.09
2022-12-11T07:57:14.184Z,100532.72
2022-12-11T07:59:44.542Z,100542.69
2022-12-11T08:02:12.137Z,100536.19
2022-12-11T08:04:39.113Z,100542.00
2022-12-11T08:07:05.774Z,100534.38
2022-12-11T08:09:32.445Z,100539.88
2022-12-11T08:11:59.171Z,100535.34
2022-12-11T08:14:25.822Z,100542.00
2022-12-11T08:16:52.677Z,100537.44
2022-12-11T08:19:19.382Z,100528.47
2022-12-11T08:21:46.198Z,100542.38
2022-12-11T08:24:12.906Z,100550.97
2022-12-11T08:26:39.572Z,100545.31
2022-12-11T08:29:06.377Z,100542.72
2022-12-11T08:31:33.357Z,100544.94
2022-12-11T08:34:00.032Z,100551.56
2022-12-11T08:36:26.737Z,100540.03
2022-12-11T08:38:54.525Z,100541.41
2022-12-11T08:41:25.569Z,100541.91
2022-12-11T08:43:55.618Z,100530.13
2022-12-11T08:46:26.306Z,100528.16
2022-12-11T08:48:53.326Z,100532.59
2022-12-11T08:51:22.877Z,100537.91
2022-12-11T08:53:50.481Z,100536.78
2022-12-11T08:56:18.514Z,100541.25
2022-12-11T08:58:45.929Z,100538.44
2022-12-11T09:01:14.396Z,100551.28
2022-12-11T09:03:41.552Z,100556.88
2022-12-11T09:06:09.912Z,100552.44
2022-12-11T09:08:36.924Z,100548.81
2022-12-11T09:11:13.433Z,100550.78
2022-12-11T09:13:40.585Z,100549.94
2022-12-11T09:16:08.266Z,100544.63
2022-12-11T09:18:35.089Z,100540.19
2022-12-11T09:21:02.709Z,100548.59
2022-12-11T09:23:29.642Z,100538.53
2022-12-11T09:25:56.715Z,100537.16
2022-12-11T09:28:23.806Z,100539.13
2022-12-11T09:30:50.509Z,100542.25
2022-12-11T09:33:17.696Z,100546.19
2022-12-11T09:35:44.636Z,100555.41
2022-12-11T09:38:11.377Z,100547.63
2022-12-11T09:40:43.115Z,100548.78
2022-12-11T09:43:15.765Z,100547.94
2022-12-11T09:45:42.481Z,100544.94
2022-12-11T09:48:10.793Z,100546.34
2022-12-11T09:50:37.550Z,100547.19
2022-12-11T09:53:34.404Z,100539.41
2022-12-11T09:56:01.253Z,100543.97
2022-12-11T09:58:34.268Z,100547.53
2022-12-11T10:01:37.819Z,100542.97
2022-12-11T10:04:39.784Z,100546.00
2022-12-11T10:07:20.257Z,100539.28
2022-12-11T10:10:03.930Z,100544.53
2022-12-11T10:12:49.530Z,100542.28
2022-12-11T10:15:19.051Z,100540.03
2022-12-11T10:17:46.011Z,100538.56
2022-12-11T10:20:37.540Z,100541.94
2022-12-11T10:23:07.006Z,100540.50
2022-12-11T10:25:37.952Z,100544.34
2022-12-11T10:28:13.187Z,100532.53
2022-12-11T10:30:42.239Z,100529.13
2022-12-11T10:33:11.947Z,100523.75
2022-12-11T10:35:42.471Z,100522.28
2022-12-11T10:38:14.346Z,100521.38
2022-12-11T10:40:43.236Z,100517.97
2022-12-11T10:43:10.872Z,100511.75
2022-12-11T10:45:51.789Z,100509.16
2022-12-11T10:48:18.720Z,100516.13
2022-12-11T10:50:55.199Z,100514.38
2022-12-11T10:53:22.245Z,100515.72
2022-12-11T10:55:49.727Z,100510.34
2022-12-11T10:58:19.136Z,100519.78
2022-12-11T11:00:46.474Z,100513.56
2022-12-11T11:03:24.053Z,100509.31
2022-12-11T11:05:50.950Z,100517.94
2022-12-11T11:08:27.747Z,100517.31
2022-12-11T11:11:01.313Z,100514.72
2022-12-11T11:13:30.086Z,100515.25
2022-12-11T11:16:05.286Z,100510.97
2022-12-11T11:18:32.282Z,100508.38
2022-12-11T11:20:59.254Z,100497.72
2022-12-11T11:23:26.282Z,100499.06
2022-12-11T11:25:52.934Z,100501.25
2022-12-11T11:28:21.961Z,100493.34
2022-12-11T11:31:14.835Z,100491.91
2022-12-11T11:33:50.597Z,100500.50
2022-12-11T11:36:22.272Z,100493.47
2022-12-11T11:39:07.483Z,100492.03
2022-12-11T11:41:34.135Z,100484.66
2022-12-11T11:44:04.310Z,100480.72
2022-12-11T11:46:35.317Z,100480.09
2022-12-11T11:49:08.167Z,100475.84
2022-12-11T11:51:39.008Z,100471.56
2022-12-11T11:54:21.328Z,100474.91
2022-12-11T11:56:50.385Z,100466.69
2022-12-11T11:59:22.093Z,100464.41
2022-12-11T12:01:48.889Z,100462.94
2022-12-11T12:04:15.937Z,100460.66
2022-12-11T12:07:00.885Z,100462.31
2022-12-11T12:09:48.677Z,100462.84
2022-12-11T12:12:24.744Z,100467.28
2022-12-11T12:15:15.468Z,100467.28
2022-12-11T12:17:45.698Z,100472.56
2022-12-11T12:20:13.847Z,100470.59
2022-12-11T12:22:49.108Z,100463.34
2022-12-11T12:25:22.395Z,100460.53
2022-12-11T12:27:57.971Z,100456.59
2022-12-11T12:30:24.990Z,100461.38
2022-12-11T12:33:10.443Z,100454.09
2022-12-11T12:36:06.774Z,100459.69
2022-12-11T12:38:54.337Z,100458.88
2022-12-11T12:41:23.217Z,100454.44
2022-12-11T12:43:59.160Z,100459.50
2022-12-11T12:46:34.921Z,100455.88
2022-12-11T12:49:02.528Z,100439.38
2022-12-11T12:51:30.325Z,100446.13
2022-12-11T12:54:04.687Z,100444.47
2022-12-11T12:56:36.869Z,100442.81
2022-12-11T12:59:03.605Z,100437.84
2022-12-11T13:01:31.510Z,100437.31
2022-12-11T13:03:59.879Z,100441.06
2022-12-11T13:06:31.889Z,100434.94
2022-12-11T13:08:58.842Z,100437.22
2022-12-11T13:11:32.893Z,100432.75
2022-12-11T13:14:04.329Z,100439.00
2022-12-11T13:16:41.251Z,100439.31
2022-12-11T13:19:27.035Z,100434.03
2022-12-11T13:21:56.841Z,100433.22
2022-12-11T13:24:23.574Z,100427.91
2022-12-11T13:26:50.839Z,100429.88
2022-12-11T13:29:49.285Z,100425.94
2022-12-11T13:32:19.125Z,100425.94
2022-12-11T13:34:51.717Z,100429.56
2022-12-11T13:37:44.277Z,100434.34
2022-12-11T13:40:19.330Z,100442.09
2022-12-11T13:43:00.859Z,100427.78
2022-12-11T13:45:29.854Z,100432.25
2022-12-11T13:47:57.509Z,100429.97
2022-12-11T13:50:31.995Z,100421.25
2022-12-11T13:53:00.030Z,100420.09
2022-12-11T13:55:31.112Z,100424.25
2022-12-11T13:57:58.284Z,100426.75
2022-12-11T14:00:26.804Z,100426.94
2022-12-11T14:02:55.590Z,100429.44
2022-12-11T14:05:22.625Z,100437.19
2022-12-11T14:07:51.934Z,100433.25
2022-12-11T14:10:24.269Z,100428.19
2022-12-11T14:12:53.880Z,100431.47
2022-12-11T14:15:21.287Z,100428.38
2022-12-11T14:17:51.666Z,100428.88
2022-12-11T14:20:29.236Z,100431.06
2022-12-11T14:23:29.016Z,100433.53
2022-12-11T14:26:05.130Z,100434.06
2022-12-11T14:28:40.823Z,100433.41
2022-12-11T14:31:29.586Z,100432.28
2022-12-11T14:34:04.349Z,100431.63
2022-12-11T14:36:33.415Z,100429.34
2022-12-11T14:39:07.081Z,100429.34
2022-12-11T14:42:04.997Z,100417.00
2022-12-11T14:44:33.963Z,100427.03
2022-12-11T14:47:10.839Z,100431.50
2022-12-11T14:50:13.830Z,100425.06
2022-12-11T14:52:52.081Z,100425.91
2022-12-11T14:55:28.912Z,100417.50
2022-12-11T14:58:02.258Z,100417.50
2022-12-11T15:00:32.167Z,100413.53
2022-12-11T15:03:01.421Z,100416.66
2022-12-11T15:05:28.794Z,100413.03
2022-12-11T15:07:59.672Z,100397.38
2022-12-11T15:10:37.691Z,100408.88
2022-12-11T15:13:06.112Z,100407.56
2022-12-11T15:15:37.877Z,100410.38
2022-12-11T15:18:08.327Z,100411.16
2022-12-11T15:20:35.019Z,100409.53
2022-12-11T15:23:02.397Z,100412.34
2022-12-11T15:25:29.963Z,100413.16
2022-12-11T15:27:58.146Z,100411.56
2022-12-11T15:30:34.723Z,100404.69
2022-12-11T15:33:04.337Z,100405.72
2022-12-11T15:35:31.164Z,100403.22
2022-12-11T15:37:58.786Z,100410.81
2022-12-11T15:40:25.839Z,100403.03
2022-12-11T15:42:52.825Z,100400.53
2022-12-11T15:45:23.814Z,100396.19
2022-12-11T15:47:50.556Z,100386.47
2022-12-11T15:50:24.874Z,100389.91
2022-12-11T15:52:52.259Z,100395.81
2022-12-11T15:55:19.557Z,100401.75
2022-12-11T15:57:47.764Z,100398.94
2022-12-11T16:00:15.219Z,100394.50
2022-12-11T16:02:42.039Z,100398.44
2022-12-11T16:05:09.248Z,100404.53
2022-12-11T16:07:36.330Z,100403.72
2022-12-11T16:10:02.966Z,100400.59
2022-12-11T16:12:29.662Z,100403.09
2022-12-11T16:14:56.586Z,100410.38
2022-12-11T16:17:23.261Z,100405.25
2022-12-11T16:19:50.144Z,100392.91
2022-12-11T16:22:17.008Z,100404.94
2022-12-11T16:24:43.786Z,100403.81
2022-12-11T16:27:10.779Z,100400.66
2022-12-11T16:29:42.925Z,100395.59
2022-12-11T16:32:10.275Z,100396.06
2022-12-11T16:34:37.797Z,100405.31
2022-12-11T16:37:05.201Z,100411.44
2022-12-11T16:39:31.979Z,100409.47
2022-12-11T16:41:58.745Z,100413.59
2022-12-11T16:44:26.198Z,100403.22
2022-12-11T16:46:54.375Z,100410.50
2022-12-11T16:49:21.695Z,100411.00
2022-12-11T16:51:49.704Z,100417.94
2022-12-11T16:54:16.759Z,100406.75
2022-12-11T16:56:43.422Z,100416.81
2022-12-11T16:59:10.073Z,100409.19
2022-12-11T17:01:36.971Z,100412.00
2022-12-11T17:04:03.746Z,100410.03
2022-12-11T17:06:30.364Z,100403.59
2022-12-11T17:08:57.229Z,100405.25
2022-12-11T17:11:25.394Z,100402.78
2022-12-11T17:13:58.685Z,100397.81
2022-12-11T17:16:26.721Z,100400.28
2022-12-11T17:18:53.470Z,100393.03
2022-12-11T17:21:21.213Z,100396.97
2022-12-11T17:23:48.368Z,100385.56
2022-12-11T17:26:15.454Z,100389.50
2022-12-11T17:28:42.247Z,100395.47
2022-12-11T17:31:12.196Z,100399.41
2022-12-11T17:33:39.385Z,100404.47
2022-12-11T17:36:06.769Z,100401.19
2022-12-11T17:38:33.701Z,100396.19
2022-12-11T17:41:00.516Z,100402.97
2022-12-11T17:43:27.546Z,100401.63
2022-12-11T17:45:55.348Z,100389.38
2022-12-11T17:48:24.939Z,100395.63
2022-12-11T17:50:52.612Z,100399.06
2022-12-11T17:53:20.288Z,100396.91
2022-12-11T17:55:47.611Z,100398.38
2022-12-11T17:58:15.979Z,100393.91
2022-12-11T18:00:44.812Z,100395.69
2022-12-11T18:03:12.034Z,100391.22
2022-12-11T18:05:42.534Z,100391.34
2022-12-11T18:08:11.902Z,100396.75
2022-12-11T18:10:38.621Z,100388.66
2022-12-11T18:13:05.374Z,100388.16
2022-12-11T18:15:32.841Z,100385.13
2022-12-11T18:17:59.968Z,100386.59
2022-12-11T18:20:26.744Z,100387.25
2022-12-11T18:22:53.755Z,100384.75
2022-12-11T18:25:20.449Z,100383.91
2022-12-11T18:27:47.139Z,100384.75
2022-12-11T18:30:14.468Z,100384.75
2022-12-11T18:32:41.911Z,100382.78
2022-12-11T18:35:08.863Z,100383.59
2022-12-11T18:37:36.076Z,100382.13
2022-12-11T18:40:03.064Z,100386.59
2022-12-11T18:42:33.768Z,100387.13
2022-12-11T18:45:00.958Z,100379.22
2022-12-11T18:47:27.760Z,100380.88
2022-12-11T18:49:54.418Z,100377.78
2022-12-11T18:52:21.063Z,100376.31
2022-12-11T18:54:47.872Z,100380.44
2022-12-11T18:57:14.619Z,100384.59
2022-12-11T18:59:50.202Z,100380.31
2022-12-11T19:02:16.920Z,100381.66
2022-12-11T19:04:43.613Z,100383.00
2022-12-11T19:07:10.280Z,100381.56
2022-12-11T19:09:47.841Z,100387.66
2022-12-11T19:12:15.126Z,100381.44
2022-12-11T19:14:41.772Z,100376.00
2022-12-11T19:17:08.406Z,100385.75
2022-12-11T19:19:44.474Z,100385.44
2022-12-11T19:22:11.141Z,100377.88
2022-12-11T19:24:37.845Z,100386.47
2022-12-11T19:27:08.565Z,100386.16
2022-12-11T19:29:38.618Z,100387.78
2022-12-11T19:32:05.445Z,100386.66
2022-12-11T19:34:32.252Z,100391.94
2022-12-11T19:36:58.987Z,100398.38
2022-12-11T19:39:25.601Z,100391.63
2022-12-11T19:41:52.253Z,100398.88
2022-12-11T19:44:18.918Z,100400.53
2022-12-11T19:46:45.677Z,100399.41
2022-12-11T19:49:12.436Z,100391.81
2022-12-11T19:51:40.595Z,100397.09
2022-12-11T19:54:08.297Z,100401.25
2022-12-11T19:56:35.602Z,100401.75
2022-12-11T19:59:03.590Z,100393.03
2022-12-11T20:01:31.304Z,100396.34
2022-12-11T20:03:59.764Z,100397.69
2022-12-11T20:06:30.172Z,100389.25
2022-12-11T20:08:57.194Z,100385.81
2022-12-11T20:11:23.996Z,100391.94
2022-12-11T20:13:51.471Z,100386.03
2022-12-11T20:16:28.868Z,100385.38
2022-12-11T20:19:05.984Z,100390.66
2022-12-11T20:21:32.700Z,100388.34
2022-12-11T20:23:59.797Z,100394.50
2022-12-11T20:26:26.686Z,100395.00
2022-12-11T20:28:53.650Z,100399.16
2022-12-11T20:31:21.880Z,100390.41
2022-12-11T20:33:49.940Z,100392.91
2022-12-11T20:36:17.256Z,100395.88
2022-12-11T20:38:44.147Z,100393.91
2022-12-11T20:41:12.100Z,100397.25
2022-12-11T20:43:39.178Z,100393.28
2022-12-11T20:46:09.981Z,100399.09
2022-12-11T20:48:36.917Z,100403.56
2022-12-11T20:51:04.504Z,100404.34
2022-12-11T20:53:31.226Z,100409.34
2022-12-11T20:56:38.980Z,100404.22
2022-12-11T20:59:14.461Z,100408.38
2022-12-11T21:01:47.360Z,100401.28
2022-12-11T21:04:14.077Z,100404.91
2022-12-11T21:06:42.192Z,100405.09
2022-12-11T21:09:12.540Z,100398.03
2022-12-11T21:11:39.730Z,100397.69
2022-12-11T21:14:06.418Z,100391.44
2022-12-11T21:16:34.786Z,100399.53
2022-12-11T21:19:01.780Z,100400.03
2022-12-11T21:21:28.518Z,100401.34
2022-12-11T21:23:55.156Z,100407.81
2022-12-11T21:26:21.902Z,100395.44
2022-12-11T21:28:48.593Z,100395.94
2022-12-11T21:31:16.351Z,100404.03
2022-12-11T21:33:43.206Z,100404.56
2022-12-11T21:36:11.356Z,100393.31
2022-12-11T21:38:38.497Z,100405.03
2022-12-11T21:41:13.816Z,100397.44
2022-12-11T21:44:14.254Z,100401.91
2022-12-11T21:46:28.179Z,100400.44
2022-12-11T21:48:55.020Z,100400.44
2022-12-11T21:51:23.679Z,100403.75
2022-12-11T21:53:50.386Z,100400.63
2022-12-11T21:56:18.335Z,100394.66
2022-12-11T21:58:45.327Z,100392.69
2022-12-11T22:01:31.610Z,100399.97
2022-12-11T22:03:58.655Z,100396.84
2022-12-11T22:06:25.280Z,100395.66
2022-12-11T22:08:52.067Z,100389.75
2022-12-11T22:11:19.695Z,100397.84
2022-12-11T22:13:46.558Z,100393.91
2022-12-11T22:16:13.343Z,100393.53
2022-12-11T22:18:40.115Z,100400.00
2022-12-11T22:21:10.962Z,100391.25
2022-12-11T22:23:38.623Z,100401.34
2022-12-11T22:26:06.052Z,100400.16
2022-12-11T22:28:32.680Z,100394.22
2022-12-11T22:30:59.683Z,100398.69
2022-12-11T22:33:26.329Z,100400.38
2022-12-11T22:35:57.345Z,100401.16
2022-12-11T22:38:24.181Z,100396.94
2022-12-11T22:40:50.891Z,100408.16
2022-12-11T22:43:17.644Z,100390.16
2022-12-11T22:45:44.366Z,100396.25
2022-12-11T22:48:11.201Z,100399.59
2022-12-11T22:50:38.624Z,100397.03
2022-12-11T22:53:05.829Z,100386.25
2022-12-11T22:55:32.542Z,100394.91
2022-12-11T22:57:59.192Z,100388.63
2022-12-11T23:00:26.248Z,100385.50
2022-12-11T23:02:53.032Z,100388.81
2022-12-11T23:05:19.831Z,100393.81
2022-12-11T23:07:46.737Z,100390.66
2022-12-11T23:10:13.651Z,100401.25
2022-12-11T23:12:40.418Z,100395.28
2022-12-11T23:15:08.678Z,100397.78
2022-12-11T23:17:35.280Z,100403.25
2022-12-11T23:20:04.045Z,100407.06
2022-12-11T23:22:30.812Z,100410.34
2022-12-11T23:24:57.548Z,100412.84
2022-12-11T23:27:24.183Z,100419.81
2022-12-11T23:29:50.883Z,100418.31
2022-12-11T23:32:17.549Z,100420.81
2022-12-11T23:34:44.170Z,100422.94
2022-12-11T23:37:10.912Z,100412.22
2022-12-11T23:39:45.467Z,100422.81
2022-12-11T23:42:12.089Z,100416.50
2022-12-11T23:44:38.750Z,100430.25
2022-12-11T23:47:05.417Z,100426.28
2022-12-11T23:49:32.164Z,100422.81
2022-12-11T23:51:58.891Z,100422.16
2022-12-11T23:54:25.504Z,100421.00
2022-12-11T23:57:16.605Z,100419.53
2022-12-11T23:59:55.064Z,100409.91
